Time;durP1;ratioP1;P1;durP2;ratioP2;P2;SDS_P1;SDS_P2;PMS_P1;PMS_P2;Temp;Humidity;BMP_temperature;BMP_pressure;BME280_temperature;BME280_humidity;BME280_pressure;Samples;Min_cycle;Max_cycle;Signal;HPM_P1;HPM_P2
2022/03/25 00:01:45;;;;;;;11.18;6.20;;;;;;;-148.16;100.00;58328.31;5032363;28;20512;-76
2022/03/25 00:04:30;;;;;;;13.70;6.50;;;;;;;-148.16;100.00;58328.31;5031009;28;20376;-76
2022/03/25 00:07:17;;;;;;;18.23;8.10;;;;;;;-148.16;100.00;58328.31;5031066;28;20099;-76
2022/03/25 00:10:02;;;;;;;17.23;7.38;;;;;;;-148.16;100.00;58328.31;5017507;28;20136;-75
2022/03/25 00:12:48;;;;;;;15.45;7.72;;;;;;;-148.16;100.00;58328.31;5031520;28;20057;-75
2022/03/25 00:15:35;;;;;;;14.35;6.57;;;;;;;-148.16;100.00;58328.31;5031959;28;20050;-76
2022/03/25 00:18:20;;;;;;;15.38;7.50;;;;;;;-148.16;100.00;58328.31;5031084;28;20037;-75
2022/03/25 00:21:05;;;;;;;13.75;7.60;;;;;;;-148.16;100.00;58328.31;5031169;28;20045;-76
2022/03/25 00:23:50;;;;;;;14.20;7.43;;;;;;;-148.16;100.00;58328.31;5032421;28;20037;-75
2022/03/25 00:26:35;;;;;;;18.17;9.32;;;;;;;-148.16;100.00;58328.31;5017747;28;20349;-76
2022/03/25 00:29:21;;;;;;;17.05;7.80;;;;;;;-148.16;100.00;58328.31;5004226;28;20490;-76
2022/03/25 00:32:06;;;;;;;13.20;7.32;;;;;;;-148.16;100.00;58328.31;5017955;28;20072;-77
2022/03/25 00:34:52;;;;;;;14.43;7.32;;;;;;;-148.16;100.00;58328.31;5031998;28;20438;-75
2022/03/25 00:37:38;;;;;;;15.68;7.35;;;;;;;-148.16;100.00;58328.31;5035650;28;20041;-76
2022/03/25 00:40:23;;;;;;;16.70;8.13;;;;;;;-148.16;100.00;58328.31;5032217;28;20045;-76
2022/03/25 00:43:09;;;;;;;15.18;7.28;;;;;;;-148.16;100.00;58328.31;5043902;28;20041;-76
2022/03/25 00:45:55;;;;;;;16.38;8.07;;;;;;;-148.16;100.00;58328.31;5036471;28;20041;-76
2022/03/25 00:48:40;;;;;;;13.57;7.10;;;;;;;-148.16;100.00;58328.31;5030855;28;20128;-76
2022/03/25 00:51:28;;;;;;;14.65;7.55;;;;;;;-148.16;100.00;58328.31;5030950;28;20049;-76
2022/03/25 00:54:15;;;;;;;13.73;6.78;;;;;;;-148.16;100.00;58328.31;5016976;28;20037;-75
2022/03/25 00:57:00;;;;;;;17.02;7.22;;;;;;;-148.16;100.00;58328.31;5031205;28;20473;-76
2022/03/25 00:59:46;;;;;;;11.40;7.10;;;;;;;-148.16;100.00;58328.31;5032097;28;20048;-76
2022/03/25 01:02:32;;;;;;;13.57;6.72;;;;;;;-148.16;100.00;58328.31;5030680;28;20037;-74
2022/03/25 01:05:19;;;;;;;14.85;7.78;;;;;;;-148.16;100.00;58328.31;5028018;28;20070;-75
2022/03/25 01:08:09;;;;;;;17.38;7.57;;;;;;;-148.16;100.00;58328.31;5013479;28;20474;-76
2022/03/25 01:10:54;;;;;;;13.98;7.38;;;;;;;-148.16;100.00;58328.31;5036890;28;20116;-75
2022/03/25 01:13:40;;;;;;;17.20;7.50;;;;;;;-148.16;100.00;58328.31;5046856;28;20054;-76
2022/03/25 01:16:26;;;;;;;14.93;7.38;;;;;;;-148.16;100.00;58328.31;5042313;28;20088;-77
2022/03/25 01:19:19;;;;;;;15.82;7.50;;;;;;;-148.16;100.00;58328.31;5031348;28;20447;-75
2022/03/25 01:22:05;;;;;;;13.20;6.60;;;;;;;-148.16;100.00;58328.31;5031563;28;20045;-76
2022/03/25 01:24:50;;;;;;;15.27;7.07;;;;;;;-148.16;100.00;58328.31;5031306;28;20412;-75
2022/03/25 01:27:35;;;;;;;15.23;7.47;;;;;;;-148.16;100.00;58328.31;5048256;28;20049;-75
2022/03/25 01:30:22;;;;;;;15.50;7.03;;;;;;;-148.16;100.00;58328.31;5034294;28;20041;-76
2022/03/25 01:33:06;;;;;;;15.32;7.13;;;;;;;-148.16;100.00;58328.31;5006228;28;20053;-76
2022/03/25 01:35:51;;;;;;;14.80;7.38;;;;;;;-148.16;100.00;58328.31;5020616;28;20046;-75
2022/03/25 01:38:36;;;;;;;15.63;7.07;;;;;;;-148.16;100.00;58328.31;5020437;28;20046;-76
2022/03/25 01:41:22;;;;;;;13.70;7.53;;;;;;;-148.16;100.00;58328.31;5019971;28;20049;-75
2022/03/25 01:44:11;;;;;;;15.90;7.53;;;;;;;-148.16;100.00;58328.31;5000580;28;20049;-76
2022/03/25 01:46:58;;;;;;;16.17;7.40;;;;;;;-148.16;100.00;58328.31;5014344;28;20046;-76
2022/03/25 01:49:42;;;;;;;14.95;7.53;;;;;;;-148.16;100.00;58328.31;5014040;28;20054;-76
2022/03/25 01:52:29;;;;;;;23.38;7.70;;;;;;;-148.16;100.00;58328.31;5027474;28;20041;-76
2022/03/25 01:55:21;;;;;;;14.80;6.72;;;;;;;-148.16;100.00;58328.31;5000125;28;20038;-76
2022/03/25 01:58:07;;;;;;;16.15;7.50;;;;;;;-148.16;100.00;58328.31;5015248;28;20074;-75
2022/03/25 02:00:52;;;;;;;21.73;8.80;;;;;;;-148.16;100.00;58328.31;5003195;28;20062;-76
2022/03/25 02:03:37;;;;;;;15.65;7.68;;;;;;;-148.16;100.00;58328.31;5018067;28;20619;-75
2022/03/25 02:06:25;;;;;;;17.27;8.40;;;;;;;-148.16;100.00;58328.31;5017341;28;20073;-77
2022/03/25 02:09:11;;;;;;;21.75;9.18;;;;;;;-148.16;100.00;58328.31;5017168;28;20054;-76
2022/03/25 02:11:57;;;;;;;16.25;7.40;;;;;;;-148.16;100.00;58328.31;5045280;28;20042;-76
2022/03/25 02:14:43;;;;;;;16.80;8.20;;;;;;;-148.16;100.00;58328.31;5041528;28;20493;-76
2022/03/25 02:17:29;;;;;;;16.63;7.93;;;;;;;-148.16;100.00;58328.31;5043097;28;20456;-75
2022/03/25 02:20:16;;;;;;;16.05;8.20;;;;;;;-148.16;100.00;58328.31;5020066;28;20493;-76
2022/03/25 02:23:02;;;;;;;13.93;7.30;;;;;;;-148.16;100.00;58328.31;5047188;28;20049;-76
2022/03/25 02:25:52;;;;;;;16.80;7.95;;;;;;;-148.16;100.00;58328.31;5029954;28;20062;-76
2022/03/25 02:28:37;;;;;;;14.40;8.07;;;;;;;-148.16;100.00;58328.31;5027662;28;20100;-75
2022/03/25 02:31:24;;;;;;;16.58;8.35;;;;;;;-148.16;100.00;58328.31;5013539;28;20405;-77
2022/03/25 02:34:10;;;;;;;17.27;8.85;;;;;;;-148.16;100.00;58328.31;5041451;28;20053;-75
2022/03/25 02:37:01;;;;;;;19.67;10.15;;;;;;;-148.16;100.00;58328.31;5013563;28;20120;-75
2022/03/25 02:39:47;;;;;;;20.70;8.95;;;;;;;-148.16;100.00;58328.31;5012998;28;20046;-75
2022/03/25 02:42:34;;;;;;;19.60;8.27;;;;;;;-148.16;100.00;58328.31;5026555;28;20049;-76
2022/03/25 02:45:22;;;;;;;18.67;8.18;;;;;;;-148.16;100.00;58328.31;5012660;28;20128;-76
2022/03/25 02:48:08;;;;;;;17.35;8.50;;;;;;;-148.16;100.00;58328.31;5026954;28;20049;-76
2022/03/25 02:50:53;;;;;;;18.20;7.97;;;;;;;-148.16;100.00;58328.31;5040460;28;20045;-76
2022/03/25 02:53:39;;;;;;;21.33;8.98;;;;;;;-148.16;100.00;58328.31;5040814;28;20096;-75
2022/03/25 02:56:27;;;;;;;15.73;7.97;;;;;;;-148.16;100.00;58328.31;5040644;28;20049;-75
2022/03/25 02:59:12;;;;;;;17.02;8.57;;;;;;;-148.16;100.00;58328.31;5012454;28;20054;-75
2022/03/25 03:02:03;;;;;;;19.50;9.48;;;;;;;-148.16;100.00;58328.31;5040913;28;20053;-76
2022/03/25 03:04:49;;;;;;;18.65;9.02;;;;;;;-148.16;100.00;58328.31;5047221;28;20595;-76
2022/03/25 03:07:35;;;;;;;18.42;8.43;;;;;;;-148.16;100.00;58328.31;5018632;28;20544;-75
2022/03/25 03:10:22;;;;;;;21.95;8.57;;;;;;;-148.16;100.00;58328.31;5032539;28;20049;-75
2022/03/25 03:13:07;;;;;;;16.17;8.20;;;;;;;-148.16;100.00;58328.31;5033877;28;20066;-76
2022/03/25 03:15:53;;;;;;;17.48;8.88;;;;;;;-148.16;100.00;58328.31;5033332;28;20378;-75
2022/03/25 03:18:41;;;;;;;19.52;9.00;;;;;;;-148.16;100.00;58328.31;5014898;28;20455;-75
2022/03/25 03:21:29;;;;;;;18.40;8.95;;;;;;;-148.16;100.00;58328.31;5031609;28;20057;-76
2022/03/25 03:24:14;;;;;;;17.63;8.18;;;;;;;-148.16;100.00;58328.31;5032908;28;20041;-75
2022/03/25 03:27:00;;;;;;;15.50;7.75;;;;;;;-148.16;100.00;58328.31;5018027;28;20044;-76
2022/03/25 03:29:47;;;;;;;22.33;8.98;;;;;;;-148.16;100.00;58328.31;5033434;28;20504;-76
2022/03/25 03:32:34;;;;;;;21.33;8.25;;;;;;;-148.16;100.00;58328.31;5032129;28;20041;-76
2022/03/25 03:35:20;;;;;;;19.13;8.25;;;;;;;-148.16;100.00;58328.31;5032608;28;20091;-76
2022/03/25 03:38:07;;;;;;;18.58;8.77;;;;;;;-148.16;100.00;58328.31;5032858;28;20037;-75
2022/03/25 03:40:52;;;;;;;14.82;7.78;;;;;;;-148.16;100.00;58328.31;5031389;28;20048;-75
2022/03/25 03:43:39;;;;;;;19.10;8.57;;;;;;;-148.16;100.00;58328.31;5032733;28;20053;-75
2022/03/25 03:46:23;;;;;;;17.15;8.57;;;;;;;-148.16;100.00;58328.31;5031896;28;20093;-77
2022/03/25 03:49:08;;;;;;;18.27;7.88;;;;;;;-148.16;100.00;58328.31;5031364;28;20049;-76
2022/03/25 03:51:53;;;;;;;15.48;7.55;;;;;;;-148.16;100.00;58328.31;5032643;28;20045;-76
2022/03/25 03:54:39;;;;;;;19.60;8.27;;;;;;;-148.16;100.00;58328.31;5031338;28;20046;-76
2022/03/25 03:57:24;;;;;;;19.45;8.55;;;;;;;-148.16;100.00;58328.31;5031268;28;20079;-75
2022/03/25 04:00:12;;;;;;;15.48;7.75;;;;;;;-148.16;100.00;58328.31;5016499;28;20382;-76
2022/03/25 04:03:00;;;;;;;16.08;7.63;;;;;;;-148.16;100.00;58328.31;5031835;28;20045;-76
2022/03/25 04:05:46;;;;;;;17.75;8.35;;;;;;;-148.16;100.00;58328.31;5017558;28;20401;-76
2022/03/25 04:08:31;;;;;;;17.92;8.35;;;;;;;-148.16;100.00;58328.31;5031885;28;20120;-77
2022/03/25 04:11:17;;;;;;;21.42;8.10;;;;;;;-148.16;100.00;58328.31;5041190;28;20048;-76
2022/03/25 04:14:03;;;;;;;20.08;8.82;;;;;;;-148.16;100.00;58328.31;5052417;28;20049;-76
2022/03/25 04:16:48;;;;;;;17.98;7.80;;;;;;;-148.16;100.00;58328.31;5065087;28;20083;-76
2022/03/25 04:19:33;;;;;;;24.23;8.80;;;;;;;-148.16;100.00;58328.31;5045290;28;20129;-76
2022/03/25 04:22:17;;;;;;;16.95;8.38;;;;;;;-148.16;100.00;58328.31;5025489;28;20042;-77
2022/03/25 04:25:05;;;;;;;20.83;8.43;;;;;;;-148.16;100.00;58328.31;5032226;28;20068;-76
2022/03/25 04:27:54;;;;;;;19.58;8.00;;;;;;;-148.16;100.00;58328.31;5035683;28;20038;-76
2022/03/25 04:30:40;;;;;;;18.15;7.65;;;;;;;-148.16;100.00;58328.31;5049015;28;20061;-76
2022/03/25 04:33:27;;;;;;;16.25;7.95;;;;;;;-148.16;100.00;58328.31;5038190;28;20535;-77
2022/03/25 04:36:14;;;;;;;18.30;7.43;;;;;;;-148.16;100.00;58328.31;5028355;28;20049;-75
2022/03/25 04:38:59;;;;;;;17.48;8.27;;;;;;;-148.16;100.00;58328.31;5051914;28;20045;-76
2022/03/25 04:41:44;;;;;;;17.40;7.75;;;;;;;-148.16;100.00;58328.31;5074682;28;20181;-76
2022/03/25 04:44:31;;;;;;;19.25;7.63;;;;;;;-148.16;100.00;58328.31;5047011;28;20044;-75
2022/03/25 04:47:16;;;;;;;17.02;8.30;;;;;;;-148.16;100.00;58328.31;5028572;28;20133;-73
2022/03/25 04:50:04;;;;;;;15.48;7.57;;;;;;;-148.16;100.00;58328.31;5035883;28;20408;-75
2022/03/25 04:52:51;;;;;;;14.40;7.28;;;;;;;-148.16;100.00;58328.31;5050633;28;20040;-74
2022/03/25 04:55:36;;;;;;;15.85;7.85;;;;;;;-148.16;100.00;58328.31;5021569;28;20111;-73
2022/03/25 04:58:21;;;;;;;15.48;7.45;;;;;;;-148.16;100.00;58328.31;5040177;28;20065;-73
2022/03/25 05:01:07;;;;;;;18.13;8.15;;;;;;;-148.16;100.00;58328.31;5033998;28;20045;-72
2022/03/25 05:03:54;;;;;;;15.40;7.00;;;;;;;-148.16;100.00;58328.31;5027291;28;20148;-74
2022/03/25 05:06:40;;;;;;;16.70;7.95;;;;;;;-148.16;100.00;58328.31;5023013;28;20042;-73
2022/03/25 05:09:26;;;;;;;16.33;7.57;;;;;;;-148.16;100.00;58328.31;5025618;28;20515;-73
2022/03/25 05:12:17;;;;;;;15.57;8.05;;;;;;;-148.16;100.00;58328.31;5038485;28;20041;-73
2022/03/25 05:15:04;;;;;;;17.38;7.60;;;;;;;-148.16;100.00;58328.31;5051782;28;20057;-74
2022/03/25 05:17:52;;;;;;;18.17;8.20;;;;;;;-148.16;100.00;58328.31;5069986;28;20044;-73
2022/03/25 05:20:37;;;;;;;19.90;9.10;;;;;;;-148.16;100.00;58328.31;5047565;28;20781;-72
2022/03/25 05:23:23;;;;;;;19.70;8.02;;;;;;;-148.16;100.00;58328.31;5039377;28;20034;-73
2022/03/25 05:26:07;;;;;;;16.88;8.27;;;;;;;-148.16;100.00;58328.31;5038136;28;20034;-72
2022/03/25 05:28:54;;;;;;;16.42;7.57;;;;;;;-148.16;100.00;58328.31;5047600;28;20045;-73
2022/03/25 05:31:40;;;;;;;19.48;8.32;;;;;;;-148.16;100.00;58328.31;5027493;28;20060;-74
2022/03/25 05:34:28;;;;;;;16.63;7.90;;;;;;;-148.16;100.00;58328.31;5034355;28;20204;-74
2022/03/25 05:37:12;;;;;;;15.50;7.75;;;;;;;-148.16;100.00;58328.31;5029940;28;20049;-73
2022/03/25 05:39:59;;;;;;;19.80;8.75;;;;;;;-148.16;100.00;58328.31;5016121;28;20053;-74
2022/03/25 05:42:44;;;;;;;19.25;8.68;;;;;;;-148.16;100.00;58328.31;5031055;28;20069;-73
2022/03/25 05:45:29;;;;;;;14.80;6.93;;;;;;;-148.16;100.00;58328.31;5016247;28;20050;-73
2022/03/25 05:48:15;;;;;;;14.68;7.32;;;;;;;-148.16;100.00;58328.31;5016348;28;20042;-72
2022/03/25 05:51:00;;;;;;;14.75;7.75;;;;;;;-148.16;100.00;58328.31;5030371;28;20053;-72
2022/03/25 05:53:45;;;;;;;17.83;7.95;;;;;;;-148.16;100.00;58328.31;5033792;28;20053;-72
2022/03/25 05:56:30;;;;;;;15.18;7.32;;;;;;;-148.16;100.00;58328.31;5034179;28;20065;-73
2022/03/25 05:59:15;;;;;;;16.05;7.90;;;;;;;-148.16;100.00;58328.31;5045584;28;20045;-73
2022/03/25 06:02:01;;;;;;;14.90;7.40;;;;;;;-148.16;100.00;58328.31;5058449;28;20076;-73
2022/03/25 06:04:46;;;;;;;17.52;7.70;;;;;;;-148.16;100.00;58328.31;5030258;28;20128;-73
2022/03/25 06:07:37;;;;;;;18.63;8.32;;;;;;;-148.16;100.00;58328.31;5029903;28;20056;-73
2022/03/25 06:10:23;;;;;;;14.88;7.40;;;;;;;-148.16;100.00;58328.31;5043545;28;20049;-73
2022/03/25 06:13:10;;;;;;;20.67;8.20;;;;;;;-148.16;100.00;58328.31;5032771;28;20061;-73
2022/03/25 06:15:56;;;;;;;16.13;8.60;;;;;;;-148.16;100.00;58328.31;5047403;28;20136;-73
2022/03/25 06:18:41;;;;;;;16.33;8.00;;;;;;;-148.16;100.00;58328.31;5047343;28;20061;-72
2022/03/25 06:21:26;;;;;;;17.67;8.77;;;;;;;-148.16;100.00;58328.31;5034230;28;20037;-73
2022/03/25 06:24:11;;;;;;;17.65;8.48;;;;;;;-148.16;100.00;58328.31;5019293;28;20037;-73
2022/03/25 06:26:56;;;;;;;20.83;9.32;;;;;;;-148.16;100.00;58328.31;5033929;28;20068;-73
2022/03/25 06:29:41;;;;;;;22.92;9.20;;;;;;;-148.16;100.00;58328.31;5032806;28;20051;-73
2022/03/25 06:32:25;;;;;;;24.52;11.05;;;;;;;-148.16;100.00;58328.31;5032953;28;20045;-73
2022/03/25 06:35:11;;;;;;;19.40;8.90;;;;;;;-148.16;100.00;58328.31;5018928;28;20579;-73
2022/03/25 06:37:58;;;;;;;16.67;8.27;;;;;;;-148.16;100.00;58328.31;5018862;28;20121;-73
2022/03/25 06:40:44;;;;;;;22.33;10.77;;;;;;;-148.16;100.00;58328.31;5032967;28;20042;-73
2022/03/25 06:43:30;;;;;;;24.17;10.90;;;;;;;-148.16;100.00;58328.31;5033537;28;20037;-74
2022/03/25 06:46:20;;;;;;;22.13;11.30;;;;;;;-148.16;100.00;58328.31;5033298;28;20346;-73
2022/03/25 06:49:07;;;;;;;20.83;9.93;;;;;;;-148.16;100.00;58328.31;5018449;28;20055;-73
2022/03/25 06:51:53;;;;;;;21.15;11.32;;;;;;;-148.16;100.00;58328.31;5033555;28;20103;-73
2022/03/25 06:54:38;;;;;;;19.83;9.80;;;;;;;-148.16;100.00;58328.31;5032818;28;20060;-73
2022/03/25 06:57:23;;;;;;;19.67;9.48;;;;;;;-148.16;100.00;58328.31;5032315;28;20056;-76
2022/03/25 07:00:12;;;;;;;20.30;10.90;;;;;;;-148.16;100.00;58328.31;5032430;28;20045;-74
2022/03/25 07:02:59;;;;;;;23.88;11.50;;;;;;;-148.16;100.00;58328.31;5033239;28;20052;-75
2022/03/25 07:05:44;;;;;;;23.05;9.77;;;;;;;-148.16;100.00;58328.31;5032079;28;20069;-75
2022/03/25 07:08:33;;;;;;;22.40;11.02;;;;;;;-148.16;100.00;58328.31;5018391;28;20084;-75
2022/03/25 07:11:18;;;;;;;20.85;9.43;;;;;;;-148.16;100.00;58328.31;5032555;28;20099;-75
2022/03/25 07:14:03;;;;;;;24.85;11.63;;;;;;;-148.16;100.00;58328.31;5032031;28;20049;-74
2022/03/25 07:16:48;;;;;;;20.08;9.57;;;;;;;-148.16;100.00;58328.31;5017664;28;20060;-74
2022/03/25 07:19:33;;;;;;;25.17;10.50;;;;;;;-148.16;100.00;58328.31;5031989;28;20041;-75
2022/03/25 07:22:18;;;;;;;19.52;9.73;;;;;;;-148.16;100.00;58328.31;5032139;28;20068;-74
2022/03/25 07:25:04;;;;;;;21.10;11.30;;;;;;;-148.16;100.00;58328.31;5033202;28;20457;-73
2022/03/25 07:27:49;;;;;;;23.25;11.73;;;;;;;-148.16;100.00;58328.31;5035168;28;20061;-74
2022/03/25 07:30:34;;;;;;;28.73;11.05;;;;;;;-148.16;100.00;58328.31;5038931;28;20048;-73
2022/03/25 07:33:19;;;;;;;22.45;10.02;;;;;;;-148.16;100.00;58328.31;5037636;28;20485;-74
2022/03/25 07:36:04;;;;;;;23.95;11.63;;;;;;;-148.16;100.00;58328.31;5032283;28;20045;-73
2022/03/25 07:38:51;;;;;;;19.58;10.18;;;;;;;-148.16;100.00;58328.31;5037250;28;20096;-75
2022/03/25 07:41:36;;;;;;;21.67;10.30;;;;;;;-148.16;100.00;58328.31;5044242;28;20045;-73
2022/03/25 07:44:21;;;;;;;19.55;9.85;;;;;;;-148.16;100.00;58328.31;5041284;28;20041;-74
2022/03/25 07:47:07;;;;;;;23.17;10.80;;;;;;;-148.16;100.00;58328.31;5032529;28;20044;-74
2022/03/25 07:49:52;;;;;;;20.15;9.90;;;;;;;-148.16;100.00;58328.31;5018071;28;20048;-75
2022/03/25 07:52:39;;;;;;;27.25;12.13;;;;;;;-148.16;100.00;58328.31;5018672;28;20501;-75
2022/03/25 07:55:24;;;;;;;23.10;10.45;;;;;;;-148.16;100.00;58328.31;5031408;28;20053;-75
2022/03/25 07:58:10;;;;;;;21.95;10.50;;;;;;;-148.16;100.00;58328.31;5033352;28;20042;-74
2022/03/25 08:00:56;;;;;;;19.30;10.27;;;;;;;-148.16;100.00;58328.31;5018029;28;20066;-74
2022/03/25 08:03:41;;;;;;;21.17;10.80;;;;;;;-148.16;100.00;58328.31;5033190;28;20092;-74
2022/03/25 08:06:28;;;;;;;20.80;10.15;;;;;;;-148.16;100.00;58328.31;5034556;28;20124;-76
2022/03/25 08:09:12;;;;;;;18.30;9.43;;;;;;;-148.16;100.00;58328.31;5035425;28;20048;-74
2022/03/25 08:11:58;;;;;;;19.50;10.52;;;;;;;-148.16;100.00;58328.31;5040322;28;20065;-73
2022/03/25 08:14:44;;;;;;;19.70;9.98;;;;;;;-148.16;100.00;58328.31;5032652;28;20057;-74
2022/03/25 08:17:29;;;;;;;21.08;9.50;;;;;;;-148.16;100.00;58328.31;5031003;28;20053;-74
2022/03/25 08:20:41;;;;;;;23.38;10.75;;;;;;;-148.16;100.00;58328.31;5016626;28;20382;-73
2022/03/25 08:29:51;;;;;;;18.58;10.27;;;;;;;-148.16;100.00;58328.31;5031490;28;20507;-73
2022/03/25 08:32:36;;;;;;;18.02;9.02;;;;;;;-148.16;100.00;58328.31;5030821;28;20045;-74
2022/03/25 08:35:21;;;;;;;17.40;8.10;;;;;;;-148.16;100.00;58328.31;5031048;28;20049;-73
2022/03/25 08:38:07;;;;;;;23.73;9.23;;;;;;;-148.16;100.00;58328.31;5030688;28;20048;-74
2022/03/25 08:40:54;;;;;;;20.27;10.45;;;;;;;-148.16;100.00;58328.31;5030151;28;20132;-73
2022/03/25 08:43:41;;;;;;;19.35;9.32;;;;;;;-148.16;100.00;58328.31;5030493;28;20052;-73
2022/03/25 08:46:26;;;;;;;12.15;6.43;;;;;;;-148.16;100.00;58328.31;5030182;28;20095;-72
2022/03/25 08:49:11;;;;;;;10.75;5.88;;;;;;;-148.16;100.00;58328.31;5030192;28;20461;-74
2022/03/25 08:51:58;;;;;;;14.45;7.32;;;;;;;-148.16;100.00;58328.31;5030156;28;20038;-73
2022/03/25 08:54:43;;;;;;;11.90;6.25;;;;;;;-148.16;100.00;58328.31;5031504;28;20546;-74
2022/03/25 08:57:28;;;;;;;12.05;6.20;;;;;;;-148.16;100.00;58328.31;5030240;28;20124;-74
2022/03/25 09:00:19;;;;;;;15.52;5.78;;;;;;;-148.16;100.00;58328.31;5030419;28;20095;-74
2022/03/25 09:03:05;;;;;;;11.82;6.03;;;;;;;-148.16;100.00;58328.31;5031272;28;20481;-75
2022/03/25 09:05:49;;;;;;;10.88;5.80;;;;;;;-148.16;100.00;58328.31;5031415;28;20049;-75
2022/03/25 09:08:35;;;;;;;13.40;6.63;;;;;;;-148.16;100.00;58328.31;5030160;28;20099;-75
2022/03/25 09:11:22;;;;;;;12.70;6.30;;;;;;;-148.16;100.00;58328.31;5043970;28;20099;-74
2022/03/25 09:14:08;;;;;;;11.55;5.90;;;;;;;-148.16;100.00;58328.31;5016172;28;20061;-75
2022/03/25 09:16:53;;;;;;;11.77;6.45;;;;;;;-148.16;100.00;58328.31;5029913;28;20041;-74
2022/03/25 09:19:42;;;;;;;12.23;5.63;;;;;;;-148.16;100.00;58328.31;5002421;28;20115;-74
2022/03/25 09:22:28;;;;;;;10.13;5.57;;;;;;;-148.16;100.00;58328.31;5029862;28;20378;-76
2022/03/25 09:25:15;;;;;;;10.10;4.80;;;;;;;-148.16;100.00;58328.31;5029784;28;20404;-75
2022/03/25 09:28:13;;;;;;;12.27;5.18;;;;;;;-148.16;100.00;58328.31;5031261;28;20045;-76
2022/03/25 09:31:00;;;;;;;9.15;5.10;;;;;;;-148.16;100.00;58328.31;5016310;28;20176;-75
2022/03/25 09:33:46;;;;;;;11.23;5.70;;;;;;;-148.16;100.00;58328.31;5031179;28;20045;-74
2022/03/25 09:36:31;;;;;;;9.25;4.97;;;;;;;-148.16;100.00;58328.31;5002414;28;20053;-75
2022/03/25 09:39:16;;;;;;;10.35;4.72;;;;;;;-148.16;100.00;58328.31;5030130;28;20055;-76
2022/03/25 09:42:04;;;;;;;10.38;6.00;;;;;;;-148.16;100.00;58328.31;5029949;28;20120;-77
2022/03/25 09:44:51;;;;;;;11.98;7.20;;;;;;;-148.16;100.00;58328.31;5030585;28;20640;-76
2022/03/25 09:47:36;;;;;;;13.25;6.28;;;;;;;-148.16;100.00;58328.31;5032851;28;20069;-73
2022/03/25 09:50:25;;;;;;;11.52;6.75;;;;;;;-148.16;100.00;58328.31;5034950;28;20101;-76
2022/03/25 09:53:11;;;;;;;12.05;6.50;;;;;;;-148.16;100.00;58328.31;5019535;28;20088;-75
2022/03/25 09:55:58;;;;;;;13.50;5.65;;;;;;;-148.16;100.00;58328.31;5019549;28;20037;-76
2022/03/25 09:58:43;;;;;;;11.70;5.70;;;;;;;-148.16;100.00;58328.31;5033900;28;20045;-76
2022/03/25 10:01:28;;;;;;;16.70;7.28;;;;;;;-148.16;100.00;58328.31;5034508;28;20057;-76
2022/03/25 10:04:50;;;;;;;13.25;6.53;;;;;;;-148.16;100.00;58328.31;5019817;28;20042;-76
2022/03/25 10:07:44;;;;;;;10.45;5.50;;;;;;;-148.16;100.00;58328.31;5034429;28;20045;-76
2022/03/25 10:10:30;;;;;;;10.40;6.50;;;;;;;-148.16;100.00;58328.31;5034503;28;20121;-77
2022/03/25 10:13:19;;;;;;;11.90;5.93;;;;;;;-148.16;100.00;58328.31;5019509;28;20061;-76
2022/03/25 10:16:28;;;;;;;10.75;6.25;;;;;;;-148.16;100.00;58328.31;5033589;28;20366;-74
2022/03/25 10:19:19;;;;;;;10.30;5.53;;;;;;;-148.16;100.00;58328.31;5033256;28;20444;-77
2022/03/25 10:22:05;;;;;;;9.60;5.07;;;;;;;-148.16;100.00;58328.31;5006139;28;20107;-76
2022/03/25 10:24:54;;;;;;;10.50;5.63;;;;;;;-148.16;100.00;58328.31;5020110;28;20034;-76
2022/03/25 10:27:40;;;;;;;13.15;5.93;;;;;;;-148.16;100.00;58328.31;5019821;28;20556;-75
2022/03/25 10:30:39;;;;;;;8.70;5.03;;;;;;;-148.16;100.00;58328.31;5019800;28;20049;-77
2022/03/25 10:33:24;;;;;;;10.88;5.75;;;;;;;-148.16;100.00;58328.31;5021358;28;20049;-77
2022/03/25 10:36:14;;;;;;;11.88;6.45;;;;;;;-148.16;100.00;58328.31;5021358;28;20103;-77
2022/03/25 10:39:01;;;;;;;14.05;5.32;;;;;;;-148.16;100.00;58328.31;5035089;28;20500;-77
2022/03/25 10:41:49;;;;;;;9.45;4.45;;;;;;;-148.16;100.00;58328.31;5034247;28;20408;-77
2022/03/25 10:44:43;;;;;;;11.70;6.70;;;;;;;-148.16;100.00;58328.31;5032967;28;20103;-78
2022/03/25 10:47:28;;;;;;;9.30;5.15;;;;;;;-148.16;100.00;58328.31;5033815;28;20041;-78
2022/03/25 10:50:13;;;;;;;13.50;6.43;;;;;;;-148.16;100.00;58328.31;5033744;28;20073;-76
2022/03/25 10:53:09;;;;;;;11.98;6.50;;;;;;;-148.16;100.00;58328.31;5032569;28;20044;-76
2022/03/25 10:55:55;;;;;;;9.90;6.13;;;;;;;-148.16;100.00;58328.31;5032449;28;20124;-78
2022/03/25 10:58:54;;;;;;;11.02;6.30;;;;;;;-148.16;100.00;58328.31;5017761;28;20052;-78
2022/03/25 11:01:39;;;;;;;9.88;5.53;;;;;;;-148.16;100.00;58328.31;5032399;28;20107;-76
2022/03/25 11:04:25;;;;;;;10.15;6.30;;;;;;;-148.16;100.00;58328.31;5032881;28;20068;-76
2022/03/25 11:07:12;;;;;;;11.10;6.65;;;;;;;-148.16;100.00;58328.31;5006118;28;20546;-77
2022/03/25 11:10:06;;;;;;;28.33;7.03;;;;;;;-148.16;100.00;58328.31;5034502;28;20056;-77
2022/03/25 11:12:51;;;;;;;12.60;7.45;;;;;;;-148.16;100.00;58328.31;5036939;28;20603;-76
2022/03/25 11:15:39;;;;;;;10.38;6.47;;;;;;;-148.16;100.00;58328.31;5034535;28;20405;-78
2022/03/25 11:18:27;;;;;;;11.93;7.38;;;;;;;-148.16;100.00;58328.31;5019213;28;20034;-77
2022/03/25 11:21:15;;;;;;;9.98;5.03;;;;;;;-148.16;100.00;58328.31;5032078;28;20365;-77
2022/03/25 11:24:06;;;;;;;13.80;7.32;;;;;;;-148.16;100.00;58328.31;5032639;28;20089;-77
2022/03/25 11:26:53;;;;;;;8.55;4.40;;;;;;;-148.16;100.00;58328.31;5018573;28;20049;-78
2022/03/25 11:29:43;;;;;;;11.13;6.07;;;;;;;-148.16;100.00;58328.31;5033178;28;20461;-79
2022/03/25 11:32:28;;;;;;;12.38;7.40;;;;;;;-148.16;100.00;58328.31;5004675;28;20365;-77
2022/03/25 11:35:18;;;;;;;13.02;6.97;;;;;;;-148.16;100.00;58328.31;5033599;28;20047;-77
2022/03/25 11:38:10;;;;;;;15.25;8.15;;;;;;;-148.16;100.00;58328.31;5033551;28;20045;-78
2022/03/25 11:41:25;;;;;;;11.60;6.65;;;;;;;-148.16;100.00;58328.31;5033330;28;20045;-77
2022/03/25 11:44:25;;;;;;;11.80;6.38;;;;;;;-148.16;100.00;58328.31;5018056;28;20497;-77
2022/03/25 11:47:14;;;;;;;8.68;5.47;;;;;;;-148.16;100.00;58328.31;5032590;28;20456;-76
2022/03/25 11:50:26;;;;;;;14.00;8.13;;;;;;;-148.16;100.00;58328.31;5031583;28;20041;-77
2022/03/25 11:53:11;;;;;;;13.02;7.38;;;;;;;-148.16;100.00;58328.31;5031381;28;20063;-76
2022/03/25 11:56:02;;;;;;;15.15;7.40;;;;;;;-148.16;100.00;58328.31;5031492;28;20049;-76
2022/03/25 11:58:54;;;;;;;9.23;4.85;;;;;;;-148.16;100.00;58328.31;5032918;28;20124;-74
2022/03/25 12:01:43;;;;;;;9.88;6.40;;;;;;;-148.16;100.00;58328.31;5030949;28;20094;-74
2022/03/25 12:04:35;;;;;;;11.57;7.20;;;;;;;-148.16;100.00;58328.31;5031356;28;20041;-74
2022/03/25 12:07:21;;;;;;;14.93;8.00;;;;;;;-148.16;100.00;58328.31;5017496;28;20041;-75
2022/03/25 12:10:45;;;;;;;11.10;5.70;;;;;;;-148.16;100.00;58328.31;5030451;28;20373;-74
2022/03/25 12:13:55;;;;;;;12.88;7.07;;;;;;;-148.16;100.00;58328.31;5017047;28;20061;-73
2022/03/25 12:16:47;;;;;;;14.80;9.20;;;;;;;-148.16;100.00;58328.31;5031103;28;20091;-76
2022/03/25 12:19:41;;;;;;;13.45;9.00;;;;;;;-148.16;100.00;58328.31;5030745;28;20485;-75
2022/03/25 12:22:29;;;;;;;10.50;6.78;;;;;;;-148.16;100.00;58328.31;5031051;28;20045;-77
2022/03/25 12:25:21;;;;;;;12.23;8.45;;;;;;;-148.16;100.00;58328.31;5030937;28;20060;-78
2022/03/25 12:28:08;;;;;;;9.20;5.78;;;;;;;-148.16;100.00;58328.31;5030881;28;20073;-77
2022/03/25 12:30:56;;;;;;;7.20;4.95;;;;;;;-148.16;100.00;58328.31;5003966;28;20045;-77
2022/03/25 12:33:41;;;;;;;17.90;9.15;;;;;;;-148.16;100.00;58328.31;5016610;28;20404;-78
2022/03/25 12:36:42;;;;;;;13.52;8.27;;;;;;;-148.16;100.00;58328.31;5030831;28;20048;-78
2022/03/25 12:39:28;;;;;;;11.63;6.95;;;;;;;-148.16;100.00;58328.31;5003340;28;20108;-77